sensor_id;sensor_type;location;lat;lon;timestamp;P1;durP1;ratioP1;P2;durP2;ratioP2
66380;SDS011;53177;52.648;1.214;2023-05-10T00:01:39;7.70;;;3.60;;
66380;SDS011;53177;52.648;1.214;2023-05-10T00:04:05;8.88;;;3.30;;
66380;SDS011;53177;52.648;1.214;2023-05-10T00:06:31;9.95;;;3.92;;
66380;SDS011;53177;52.648;1.214;2023-05-10T00:08:56;8.80;;;3.63;;
66380;SDS011;53177;52.648;1.214;2023-05-10T00:11:22;9.13;;;3.90;;
66380;SDS011;53177;52.648;1.214;2023-05-10T00:13:47;10.93;;;4.20;;
66380;SDS011;53177;52.648;1.214;2023-05-10T00:16:13;10.03;;;4.07;;
66380;SDS011;53177;52.648;1.214;2023-05-10T00:18:38;9.80;;;3.70;;
66380;SDS011;53177;52.648;1.214;2023-05-10T00:21:04;9.05;;;4.00;;
66380;SDS011;53177;52.648;1.214;2023-05-10T00:23:30;11.90;;;4.57;;
66380;SDS011;53177;52.648;1.214;2023-05-10T00:25:55;9.35;;;4.30;;
66380;SDS011;53177;52.648;1.214;2023-05-10T00:28:21;11.97;;;5.03;;
66380;SDS011;53177;52.648;1.214;2023-05-10T00:30:47;9.75;;;4.65;;
66380;SDS011;53177;52.648;1.214;2023-05-10T00:33:12;9.70;;;4.53;;
66380;SDS011;53177;52.648;1.214;2023-05-10T00:35:37;12.57;;;5.20;;
66380;SDS011;53177;52.648;1.214;2023-05-10T00:38:03;11.30;;;4.50;;
66380;SDS011;53177;52.648;1.214;2023-05-10T00:40:28;11.20;;;4.70;;
66380;SDS011;53177;52.648;1.214;2023-05-10T00:42:55;9.33;;;4.00;;
66380;SDS011;53177;52.648;1.214;2023-05-10T00:45:22;9.32;;;4.05;;
66380;SDS011;53177;52.648;1.214;2023-05-10T00:47:48;11.73;;;4.60;;
66380;SDS011;53177;52.648;1.214;2023-05-10T00:50:14;10.80;;;4.50;;
66380;SDS011;53177;52.648;1.214;2023-05-10T00:52:40;11.18;;;5.07;;
66380;SDS011;53177;52.648;1.214;2023-05-10T00:55:07;12.07;;;5.00;;
66380;SDS011;53177;52.648;1.214;2023-05-10T00:57:36;13.23;;;5.22;;
66380;SDS011;53177;52.648;1.214;2023-05-10T01:00:02;12.57;;;5.00;;
66380;SDS011;53177;52.648;1.214;2023-05-10T01:02:28;11.02;;;5.15;;
66380;SDS011;53177;52.648;1.214;2023-05-10T01:04:54;11.87;;;5.13;;
66380;SDS011;53177;52.648;1.214;2023-05-10T01:07:20;10.15;;;4.90;;
66380;SDS011;53177;52.648;1.214;2023-05-10T01:09:45;13.13;;;5.10;;
66380;SDS011;53177;52.648;1.214;2023-05-10T01:12:11;11.63;;;5.13;;
66380;SDS011;53177;52.648;1.214;2023-05-10T01:14:36;13.25;;;5.18;;
66380;SDS011;53177;52.648;1.214;2023-05-10T01:17:02;11.47;;;5.03;;
66380;SDS011;53177;52.648;1.214;2023-05-10T01:19:29;12.63;;;5.30;;
66380;SDS011;53177;52.648;1.214;2023-05-10T01:31:21;11.82;;;4.95;;
66380;SDS011;53177;52.648;1.214;2023-05-10T01:38:53;11.68;;;5.40;;
66380;SDS011;53177;52.648;1.214;2023-05-10T01:41:32;14.77;;;5.85;;
66380;SDS011;53177;52.648;1.214;2023-05-10T01:44:18;12.63;;;5.10;;
66380;SDS011;53177;52.648;1.214;2023-05-10T01:46:53;11.88;;;4.95;;
66380;SDS011;53177;52.648;1.214;2023-05-10T01:49:26;12.73;;;5.10;;
66380;SDS011;53177;52.648;1.214;2023-05-10T01:51:59;11.32;;;4.93;;
66380;SDS011;53177;52.648;1.214;2023-05-10T01:54:28;12.48;;;5.15;;
66380;SDS011;53177;52.648;1.214;2023-05-10T01:56:59;11.63;;;5.00;;
66380;SDS011;53177;52.648;1.214;2023-05-10T01:59:29;13.50;;;5.22;;
66380;SDS011;53177;52.648;1.214;2023-05-10T02:01:58;11.68;;;4.60;;
66380;SDS011;53177;52.648;1.214;2023-05-10T02:04:26;10.65;;;5.20;;
66380;SDS011;53177;52.648;1.214;2023-05-10T02:06:52;12.60;;;4.80;;
66380;SDS011;53177;52.648;1.214;2023-05-10T02:09:20;13.97;;;5.40;;
66380;SDS011;53177;52.648;1.214;2023-05-10T02:11:47;15.05;;;5.80;;
66380;SDS011;53177;52.648;1.214;2023-05-10T02:14:14;15.25;;;5.63;;
66380;SDS011;53177;52.648;1.214;2023-05-10T02:16:40;13.35;;;5.10;;
66380;SDS011;53177;52.648;1.214;2023-05-10T02:19:09;15.05;;;5.30;;
66380;SDS011;53177;52.648;1.214;2023-05-10T02:21:37;12.63;;;5.13;;
66380;SDS011;53177;52.648;1.214;2023-05-10T02:24:05;12.38;;;5.20;;
66380;SDS011;53177;52.648;1.214;2023-05-10T02:26:31;12.75;;;5.57;;
66380;SDS011;53177;52.648;1.214;2023-05-10T02:28:58;14.35;;;5.38;;
66380;SDS011;53177;52.648;1.214;2023-05-10T02:31:26;13.75;;;5.85;;
66380;SDS011;53177;52.648;1.214;2023-05-10T02:33:51;14.23;;;5.37;;
66380;SDS011;53177;52.648;1.214;2023-05-10T02:36:19;15.90;;;5.60;;
66380;SDS011;53177;52.648;1.214;2023-05-10T02:38:46;13.75;;;5.57;;
66380;SDS011;53177;52.648;1.214;2023-05-10T02:41:12;15.27;;;5.85;;
66380;SDS011;53177;52.648;1.214;2023-05-10T02:43:39;16.23;;;5.72;;
66380;SDS011;53177;52.648;1.214;2023-05-10T02:46:05;14.32;;;5.63;;
66380;SDS011;53177;52.648;1.214;2023-05-10T02:48:31;12.80;;;5.97;;
66380;SDS011;53177;52.648;1.214;2023-05-10T02:50:59;13.93;;;5.90;;
66380;SDS011;53177;52.648;1.214;2023-05-10T02:53:33;15.02;;;5.82;;
66380;SDS011;53177;52.648;1.214;2023-05-10T02:56:01;13.52;;;5.72;;
66380;SDS011;53177;52.648;1.214;2023-05-10T02:58:32;16.17;;;6.45;;
66380;SDS011;53177;52.648;1.214;2023-05-10T03:00:59;16.30;;;6.60;;
66380;SDS011;53177;52.648;1.214;2023-05-10T03:03:25;22.98;;;7.15;;
66380;SDS011;53177;52.648;1.214;2023-05-10T03:05:50;15.05;;;6.25;;
66380;SDS011;53177;52.648;1.214;2023-05-10T03:08:15;17.23;;;6.57;;
66380;SDS011;53177;52.648;1.214;2023-05-10T03:10:45;20.13;;;7.60;;
66380;SDS011;53177;52.648;1.214;2023-05-10T03:14:07;18.58;;;7.75;;
66380;SDS011;53177;52.648;1.214;2023-05-10T03:16:41;25.15;;;8.60;;
66380;SDS011;53177;52.648;1.214;2023-05-10T03:19:22;22.00;;;8.55;;
66380;SDS011;53177;52.648;1.214;2023-05-10T03:21:52;21.73;;;8.77;;
66380;SDS011;53177;52.648;1.214;2023-05-10T03:24:20;24.15;;;8.82;;
66380;SDS011;53177;52.648;1.214;2023-05-10T03:26:48;23.40;;;9.13;;
66380;SDS011;53177;52.648;1.214;2023-05-10T03:29:17;27.40;;;9.50;;
66380;SDS011;53177;52.648;1.214;2023-05-10T03:31:43;24.85;;;10.02;;
66380;SDS011;53177;52.648;1.214;2023-05-10T03:34:11;27.33;;;10.23;;
66380;SDS011;53177;52.648;1.214;2023-05-10T03:36:38;28.42;;;10.25;;
66380;SDS011;53177;52.648;1.214;2023-05-10T03:39:04;28.17;;;9.93;;
66380;SDS011;53177;52.648;1.214;2023-05-10T03:41:29;27.87;;;10.67;;
66380;SDS011;53177;52.648;1.214;2023-05-10T03:43:55;25.37;;;10.43;;
66380;SDS011;53177;52.648;1.214;2023-05-10T03:46:20;25.50;;;10.20;;
66380;SDS011;53177;52.648;1.214;2023-05-10T03:48:45;25.35;;;10.32;;
66380;SDS011;53177;52.648;1.214;2023-05-10T03:51:11;27.37;;;9.87;;
66380;SDS011;53177;52.648;1.214;2023-05-10T03:53:36;31.47;;;11.60;;
66380;SDS011;53177;52.648;1.214;2023-05-10T03:56:01;28.63;;;10.57;;
66380;SDS011;53177;52.648;1.214;2023-05-10T03:58:27;28.37;;;10.50;;
66380;SDS011;53177;52.648;1.214;2023-05-10T04:00:53;25.67;;;10.03;;
66380;SDS011;53177;52.648;1.214;2023-05-10T04:03:18;27.98;;;10.38;;
66380;SDS011;53177;52.648;1.214;2023-05-10T04:05:45;26.65;;;10.30;;
66380;SDS011;53177;52.648;1.214;2023-05-10T04:08:10;28.87;;;10.77;;
66380;SDS011;53177;52.648;1.214;2023-05-10T04:10:35;31.27;;;10.63;;
66380;SDS011;53177;52.648;1.214;2023-05-10T04:13:01;23.53;;;9.43;;
66380;SDS011;53177;52.648;1.214;2023-05-10T04:15:26;24.25;;;9.85;;
66380;SDS011;53177;52.648;1.214;2023-05-10T04:17:51;28.33;;;9.98;;
66380;SDS011;53177;52.648;1.214;2023-05-10T04:20:17;25.70;;;9.23;;
66380;SDS011;53177;52.648;1.214;2023-05-10T04:22:43;26.90;;;8.98;;
66380;SDS011;53177;52.648;1.214;2023-05-10T04:25:09;26.57;;;9.87;;
66380;SDS011;53177;52.648;1.214;2023-05-10T04:27:34;28.47;;;9.37;;
66380;SDS011;53177;52.648;1.214;2023-05-10T04:30:00;24.20;;;9.17;;
66380;SDS011;53177;52.648;1.214;2023-05-10T04:32:25;22.25;;;8.20;;
66380;SDS011;53177;52.648;1.214;2023-05-10T04:34:50;27.27;;;7.82;;
66380;SDS011;53177;52.648;1.214;2023-05-10T04:37:16;24.77;;;8.50;;
66380;SDS011;53177;52.648;1.214;2023-05-10T04:39:42;20.70;;;7.70;;
66380;SDS011;53177;52.648;1.214;2023-05-10T04:42:07;24.08;;;8.10;;
66380;SDS011;53177;52.648;1.214;2023-05-10T04:44:33;22.83;;;8.57;;
66380;SDS011;53177;52.648;1.214;2023-05-10T04:46:58;23.73;;;8.40;;
66380;SDS011;53177;52.648;1.214;2023-05-10T04:49:24;20.48;;;8.18;;
66380;SDS011;53177;52.648;1.214;2023-05-10T04:51:49;20.77;;;7.37;;
66380;SDS011;53177;52.648;1.214;2023-05-10T04:54:15;28.43;;;8.43;;
66380;SDS011;53177;52.648;1.214;2023-05-10T04:56:40;25.73;;;8.20;;
66380;SDS011;53177;52.648;1.214;2023-05-10T04:59:06;27.30;;;8.00;;
66380;SDS011;53177;52.648;1.214;2023-05-10T05:01:31;27.13;;;7.80;;
66380;SDS011;53177;52.648;1.214;2023-05-10T05:03:57;28.47;;;7.40;;
66380;SDS011;53177;52.648;1.214;2023-05-10T05:06:22;33.42;;;8.45;;
66380;SDS011;53177;52.648;1.214;2023-05-10T05:08:49;31.30;;;8.38;;
66380;SDS011;53177;52.648;1.214;2023-05-10T05:11:15;22.30;;;7.88;;
66380;SDS011;53177;52.648;1.214;2023-05-10T05:13:41;25.83;;;7.93;;
66380;SDS011;53177;52.648;1.214;2023-05-10T05:16:06;28.23;;;7.60;;
66380;SDS011;53177;52.648;1.214;2023-05-10T05:18:31;33.10;;;7.80;;
66380;SDS011;53177;52.648;1.214;2023-05-10T05:20:57;24.67;;;7.00;;
66380;SDS011;53177;52.648;1.214;2023-05-10T05:23:22;22.00;;;7.30;;
66380;SDS011;53177;52.648;1.214;2023-05-10T05:25:50;25.63;;;7.03;;
66380;SDS011;53177;52.648;1.214;2023-05-10T05:28:16;25.93;;;6.63;;
66380;SDS011;53177;52.648;1.214;2023-05-10T05:30:42;24.27;;;6.20;;
66380;SDS011;53177;52.648;1.214;2023-05-10T05:33:07;22.17;;;5.85;;
66380;SDS011;53177;52.648;1.214;2023-05-10T05:35:32;25.67;;;6.20;;
66380;SDS011;53177;52.648;1.214;2023-05-10T05:37:58;22.93;;;6.53;;
66380;SDS011;53177;52.648;1.214;2023-05-10T05:40:24;22.10;;;5.53;;
66380;SDS011;53177;52.648;1.214;2023-05-10T05:42:50;22.42;;;5.35;;
66380;SDS011;53177;52.648;1.214;2023-05-10T05:45:15;24.53;;;5.70;;
66380;SDS011;53177;52.648;1.214;2023-05-10T05:47:41;24.10;;;5.77;;
66380;SDS011;53177;52.648;1.214;2023-05-10T05:50:06;21.40;;;5.57;;
66380;SDS011;53177;52.648;1.214;2023-05-10T05:52:32;21.65;;;5.72;;
66380;SDS011;53177;52.648;1.214;2023-05-10T05:54:57;20.17;;;5.60;;
66380;SDS011;53177;52.648;1.214;2023-05-10T05:57:23;21.13;;;5.13;;
66380;SDS011;53177;52.648;1.214;2023-05-10T05:59:48;17.60;;;4.82;;
66380;SDS011;53177;52.648;1.214;2023-05-10T06:02:13;15.77;;;4.30;;
66380;SDS011;53177;52.648;1.214;2023-05-10T06:04:39;18.60;;;4.93;;
66380;SDS011;53177;52.648;1.214;2023-05-10T06:07:04;13.37;;;4.90;;
66380;SDS011;53177;52.648;1.214;2023-05-10T06:09:30;15.57;;;5.30;;
66380;SDS011;53177;52.648;1.214;2023-05-10T06:11:55;17.67;;;4.70;;
66380;SDS011;53177;52.648;1.214;2023-05-10T06:14:21;14.75;;;4.07;;
66380;SDS011;53177;52.648;1.214;2023-05-10T06:16:47;15.87;;;4.97;;
66380;SDS011;53177;52.648;1.214;2023-05-10T06:19:12;16.00;;;4.40;;
66380;SDS011;53177;52.648;1.214;2023-05-10T06:21:37;20.33;;;4.63;;
66380;SDS011;53177;52.648;1.214;2023-05-10T06:24:03;13.20;;;4.13;;
66380;SDS011;53177;52.648;1.214;2023-05-10T06:26:30;17.45;;;4.43;;
66380;SDS011;53177;52.648;1.214;2023-05-10T06:28:55;15.03;;;4.60;;
66380;SDS011;53177;52.648;1.214;2023-05-10T06:31:21;21.63;;;4.67;;
66380;SDS011;53177;52.648;1.214;2023-05-10T06:33:46;14.73;;;4.45;;
66380;SDS011;53177;52.648;1.214;2023-05-10T06:36:12;22.08;;;4.80;;
66380;SDS011;53177;52.648;1.214;2023-05-10T06:38:38;14.32;;;4.70;;
66380;SDS011;53177;52.648;1.214;2023-05-10T06:41:04;15.53;;;4.70;;
66380;SDS011;53177;52.648;1.214;2023-05-10T06:43:29;12.27;;;4.63;;
66380;SDS011;53177;52.648;1.214;2023-05-10T06:45:54;16.55;;;5.00;;
66380;SDS011;53177;52.648;1.214;2023-05-10T06:48:20;15.95;;;5.20;;
66380;SDS011;53177;52.648;1.214;2023-05-10T06:50:45;16.40;;;4.90;;
66380;SDS011;53177;52.648;1.214;2023-05-10T06:53:10;14.97;;;4.47;;
66380;SDS011;53177;52.648;1.214;2023-05-10T06:55:37;13.90;;;4.60;;
66380;SDS011;53177;52.648;1.214;2023-05-10T06:58:02;15.63;;;4.83;;
66380;SDS011;53177;52.648;1.214;2023-05-10T07:00:28;12.53;;;4.57;;
66380;SDS011;53177;52.648;1.214;2023-05-10T07:02:53;14.50;;;4.93;;
66380;SDS011;53177;52.648;1.214;2023-05-10T07:05:18;15.57;;;5.07;;
66380;SDS011;53177;52.648;1.214;2023-05-10T07:07:44;15.80;;;4.93;;
66380;SDS011;53177;52.648;1.214;2023-05-10T07:10:10;17.33;;;4.83;;
66380;SDS011;53177;52.648;1.214;2023-05-10T07:12:36;13.00;;;5.15;;
66380;SDS011;53177;52.648;1.214;2023-05-10T07:15:01;16.97;;;5.57;;
66380;SDS011;53177;52.648;1.214;2023-05-10T07:17:27;15.35;;;4.93;;
66380;SDS011;53177;52.648;1.214;2023-05-10T07:19:53;15.70;;;4.73;;
66380;SDS011;53177;52.648;1.214;2023-05-10T07:22:18;14.33;;;4.60;;
66380;SDS011;53177;52.648;1.214;2023-05-10T07:24:44;19.07;;;5.37;;
66380;SDS011;53177;52.648;1.214;2023-05-10T07:27:09;16.07;;;4.83;;
66380;SDS011;53177;52.648;1.214;2023-05-10T07:29:35;12.85;;;4.60;;
66380;SDS011;53177;52.648;1.214;2023-05-10T07:32:01;19.33;;;5.67;;
66380;SDS011;53177;52.648;1.214;2023-05-10T07:34:26;18.13;;;4.80;;
66380;SDS011;53177;52.648;1.214;2023-05-10T07:36:52;15.23;;;4.90;;
66380;SDS011;53177;52.648;1.214;2023-05-10T07:39:18;15.73;;;5.57;;
66380;SDS011;53177;52.648;1.214;2023-05-10T07:41:43;18.30;;;5.53;;
66380;SDS011;53177;52.648;1.214;2023-05-10T07:44:08;13.97;;;4.97;;
66380;SDS011;53177;52.648;1.214;2023-05-10T07:46:34;14.87;;;5.10;;
66380;SDS011;53177;52.648;1.214;2023-05-10T07:48:59;15.40;;;5.20;;
66380;SDS011;53177;52.648;1.214;2023-05-10T07:51:26;14.65;;;5.53;;
66380;SDS011;53177;52.648;1.214;2023-05-10T07:53:53;15.90;;;5.82;;
66380;SDS011;53177;52.648;1.214;2023-05-10T07:58:48;15.48;;;5.72;;
66380;SDS011;53177;52.648;1.214;2023-05-10T08:01:13;19.27;;;6.43;;
66380;SDS011;53177;52.648;1.214;2023-05-10T08:03:39;15.45;;;5.18;;
66380;SDS011;53177;52.648;1.214;2023-05-10T08:06:04;19.40;;;6.00;;
66380;SDS011;53177;52.648;1.214;2023-05-10T08:08:30;15.82;;;5.55;;
66380;SDS011;53177;52.648;1.214;2023-05-10T08:10:56;20.83;;;5.80;;
66380;SDS011;53177;52.648;1.214;2023-05-10T08:13:21;21.77;;;6.40;;
66380;SDS011;53177;52.648;1.214;2023-05-10T08:15:46;17.33;;;6.33;;
66380;SDS011;53177;52.648;1.214;2023-05-10T08:18:12;15.83;;;5.73;;
66380;SDS011;53177;52.648;1.214;2023-05-10T08:20:37;14.60;;;5.33;;
66380;SDS011;53177;52.648;1.214;2023-05-10T08:23:03;17.47;;;6.00;;
66380;SDS011;53177;52.648;1.214;2023-05-10T08:25:28;17.45;;;5.55;;
66380;SDS011;53177;52.648;1.214;2023-05-10T08:27:56;18.60;;;5.37;;
66380;SDS011;53177;52.648;1.214;2023-05-10T08:30:25;17.40;;;5.20;;
66380;SDS011;53177;52.648;1.214;2023-05-10T08:32:52;16.40;;;5.50;;
66380;SDS011;53177;52.648;1.214;2023-05-10T08:35:17;15.67;;;4.97;;
66380;SDS011;53177;52.648;1.214;2023-05-10T08:37:42;18.02;;;5.93;;
66380;SDS011;53177;52.648;1.214;2023-05-10T08:40:08;15.13;;;6.07;;
66380;SDS011;53177;52.648;1.214;2023-05-10T08:42:36;14.50;;;4.93;;
66380;SDS011;53177;52.648;1.214;2023-05-10T08:45:06;19.58;;;6.57;;
66380;SDS011;53177;52.648;1.214;2023-05-10T08:47:33;18.73;;;6.15;;
66380;SDS011;53177;52.648;1.214;2023-05-10T08:50:03;16.25;;;6.72;;
66380;SDS011;53177;52.648;1.214;2023-05-10T08:52:29;23.50;;;7.97;;
66380;SDS011;53177;52.648;1.214;2023-05-10T08:54:56;21.00;;;7.25;;
66380;SDS011;53177;52.648;1.214;2023-05-10T08:57:21;21.90;;;7.70;;
66380;SDS011;53177;52.648;1.214;2023-05-10T08:59:47;21.70;;;8.43;;
66380;SDS011;53177;52.648;1.214;2023-05-10T09:02:12;18.73;;;7.03;;
66380;SDS011;53177;52.648;1.214;2023-05-10T09:04:38;16.13;;;8.15;;
66380;SDS011;53177;52.648;1.214;2023-05-10T09:07:04;18.92;;;8.95;;
66380;SDS011;53177;52.648;1.214;2023-05-10T09:09:29;17.33;;;8.33;;
66380;SDS011;53177;52.648;1.214;2023-05-10T09:11:56;18.80;;;8.55;;
66380;SDS011;53177;52.648;1.214;2023-05-10T09:14:21;16.25;;;8.77;;
66380;SDS011;53177;52.648;1.214;2023-05-10T09:16:49;16.52;;;8.82;;
66380;SDS011;53177;52.648;1.214;2023-05-10T09:19:14;19.20;;;8.10;;
66380;SDS011;53177;52.648;1.214;2023-05-10T09:21:40;12.93;;;6.72;;
66380;SDS011;53177;52.648;1.214;2023-05-10T09:24:06;15.40;;;7.47;;
66380;SDS011;53177;52.648;1.214;2023-05-10T09:26:32;14.65;;;6.85;;
66380;SDS011;53177;52.648;1.214;2023-05-10T09:29:00;12.95;;;6.75;;
66380;SDS011;53177;52.648;1.214;2023-05-10T09:34:19;14.88;;;5.82;;
66380;SDS011;53177;52.648;1.214;2023-05-10T09:36:56;13.02;;;5.85;;
66380;SDS011;53177;52.648;1.214;2023-05-10T09:39:32;12.68;;;5.70;;
66380;SDS011;53177;52.648;1.214;2023-05-10T09:41:59;13.07;;;5.70;;
66380;SDS011;53177;52.648;1.214;2023-05-10T09:44:28;12.35;;;5.20;;
66380;SDS011;53177;52.648;1.214;2023-05-10T09:46:54;13.52;;;5.70;;
66380;SDS011;53177;52.648;1.214;2023-05-10T09:49:20;13.82;;;5.22;;
66380;SDS011;53177;52.648;1.214;2023-05-10T09:51:46;15.23;;;5.27;;
66380;SDS011;53177;52.648;1.214;2023-05-10T09:54:13;14.02;;;5.90;;
66380;SDS011;53177;52.648;1.214;2023-05-10T09:56:40;15.32;;;5.38;;
66380;SDS011;53177;52.648;1.214;2023-05-10T09:59:07;13.07;;;5.95;;
66380;SDS011;53177;52.648;1.214;2023-05-10T10:01:35;14.30;;;6.18;;
66380;SDS011;53177;52.648;1.214;2023-05-10T10:04:02;13.63;;;6.30;;
66380;SDS011;53177;52.648;1.214;2023-05-10T10:06:29;11.88;;;5.90;;
66380;SDS011;53177;52.648;1.214;2023-05-10T10:08:55;12.38;;;5.72;;
66380;SDS011;53177;52.648;1.214;2023-05-10T10:11:21;16.33;;;5.40;;
66380;SDS011;53177;52.648;1.214;2023-05-10T10:13:48;12.32;;;4.70;;
66380;SDS011;53177;52.648;1.214;2023-05-10T10:16:14;13.07;;;5.47;;
66380;SDS011;53177;52.648;1.214;2023-05-10T10:18:40;11.10;;;4.63;;
66380;SDS011;53177;52.648;1.214;2023-05-10T10:21:07;9.40;;;4.43;;
66380;SDS011;53177;52.648;1.214;2023-05-10T10:23:36;14.27;;;4.85;;
66380;SDS011;53177;52.648;1.214;2023-05-10T10:26:02;12.93;;;4.35;;
66380;SDS011;53177;52.648;1.214;2023-05-10T10:31:26;8.25;;;3.90;;
66380;SDS011;53177;52.648;1.214;2023-05-10T10:33:59;10.93;;;3.88;;
66380;SDS011;53177;52.648;1.214;2023-05-10T10:36:28;12.65;;;4.00;;
66380;SDS011;53177;52.648;1.214;2023-05-10T10:38:54;11.93;;;3.67;;
66380;SDS011;53177;52.648;1.214;2023-05-10T10:41:36;10.20;;;3.88;;
66380;SDS011;53177;52.648;1.214;2023-05-10T10:49:49;11.82;;;3.70;;
66380;SDS011;53177;52.648;1.214;2023-05-10T11:00:20;11.55;;;3.70;;
66380;SDS011;53177;52.648;1.214;2023-05-10T11:07:54;10.95;;;3.42;;
66380;SDS011;53177;52.648;1.214;2023-05-10T11:10:25;8.82;;;3.28;;
66380;SDS011;53177;52.648;1.214;2023-05-10T11:13:06;8.27;;;3.03;;
66380;SDS011;53177;52.648;1.214;2023-05-10T11:15:36;9.75;;;3.00;;
66380;SDS011;53177;52.648;1.214;2023-05-10T11:18:18;9.20;;;2.40;;
66380;SDS011;53177;52.648;1.214;2023-05-10T11:20:51;10.05;;;2.60;;
66380;SDS011;53177;52.648;1.214;2023-05-10T11:23:17;11.48;;;2.90;;
66380;SDS011;53177;52.648;1.214;2023-05-10T11:25:44;10.05;;;2.90;;
66380;SDS011;53177;52.648;1.214;2023-05-10T11:28:11;9.80;;;2.97;;
66380;SDS011;53177;52.648;1.214;2023-05-10T11:30:38;8.37;;;2.80;;
66380;SDS011;53177;52.648;1.214;2023-05-10T11:33:04;10.43;;;3.15;;
66380;SDS011;53177;52.648;1.214;2023-05-10T11:35:31;11.60;;;3.42;;
66380;SDS011;53177;52.648;1.214;2023-05-10T11:38:04;10.60;;;2.63;;
66380;SDS011;53177;52.648;1.214;2023-05-10T11:40:30;8.18;;;2.40;;
66380;SDS011;53177;52.648;1.214;2023-05-10T11:42:56;10.03;;;2.57;;
66380;SDS011;53177;52.648;1.214;2023-05-10T11:45:23;8.67;;;2.50;;
66380;SDS011;53177;52.648;1.214;2023-05-10T11:47:49;8.80;;;2.60;;
66380;SDS011;53177;52.648;1.214;2023-05-10T11:50:15;5.83;;;2.30;;
66380;SDS011;53177;52.648;1.214;2023-05-10T11:52:42;8.82;;;2.20;;
66380;SDS011;53177;52.648;1.214;2023-05-10T11:55:07;9.87;;;2.60;;
66380;SDS011;53177;52.648;1.214;2023-05-10T11:57:33;8.82;;;2.30;;
66380;SDS011;53177;52.648;1.214;2023-05-10T11:59:58;8.05;;;2.67;;
66380;SDS011;53177;52.648;1.214;2023-05-10T12:02:24;9.07;;;2.70;;
66380;SDS011;53177;52.648;1.214;2023-05-10T12:04:49;11.20;;;3.73;;
66380;SDS011;53177;52.648;1.214;2023-05-10T12:07:16;10.68;;;2.55;;
66380;SDS011;53177;52.648;1.214;2023-05-10T12:09:43;8.30;;;2.08;;
66380;SDS011;53177;52.648;1.214;2023-05-10T12:12:10;9.20;;;2.67;;
66380;SDS011;53177;52.648;1.214;2023-05-10T12:14:41;8.35;;;2.28;;
66380;SDS011;53177;52.648;1.214;2023-05-10T12:17:06;7.72;;;2.33;;
66380;SDS011;53177;52.648;1.214;2023-05-10T12:19:37;9.52;;;2.22;;
66380;SDS011;53177;52.648;1.214;2023-05-10T12:22:06;6.72;;;2.58;;
66380;SDS011;53177;52.648;1.214;2023-05-10T12:24:33;8.10;;;1.85;;
66380;SDS011;53177;52.648;1.214;2023-05-10T12:27:04;6.97;;;2.30;;
66380;SDS011;53177;52.648;1.214;2023-05-10T12:29:30;6.18;;;2.00;;
66380;SDS011;53177;52.648;1.214;2023-05-10T12:31:57;7.17;;;2.20;;
66380;SDS011;53177;52.648;1.214;2023-05-10T12:36:55;6.72;;;2.20;;
66380;SDS011;53177;52.648;1.214;2023-05-10T12:39:21;8.13;;;1.80;;
66380;SDS011;53177;52.648;1.214;2023-05-10T12:41:46;6.50;;;1.83;;
66380;SDS011;53177;52.648;1.214;2023-05-10T12:44:12;8.13;;;2.05;;
66380;SDS011;53177;52.648;1.214;2023-05-10T12:46:37;8.57;;;1.93;;
66380;SDS011;53177;52.648;1.214;2023-05-10T12:49:02;7.00;;;1.83;;
66380;SDS011;53177;52.648;1.214;2023-05-10T12:51:28;7.97;;;2.10;;
66380;SDS011;53177;52.648;1.214;2023-05-10T12:53:53;5.67;;;1.47;;
66380;SDS011;53177;52.648;1.214;2023-05-10T12:56:19;6.10;;;1.48;;
66380;SDS011;53177;52.648;1.214;2023-05-10T12:58:45;6.70;;;1.80;;
66380;SDS011;53177;52.648;1.214;2023-05-10T13:01:13;5.20;;;1.60;;
66380;SDS011;53177;52.648;1.214;2023-05-10T13:03:39;7.68;;;1.83;;
66380;SDS011;53177;52.648;1.214;2023-05-10T13:06:05;5.73;;;1.50;;
66380;SDS011;53177;52.648;1.214;2023-05-10T13:08:31;5.93;;;1.63;;
66380;SDS011;53177;52.648;1.214;2023-05-10T13:10:58;6.10;;;1.60;;
66380;SDS011;53177;52.648;1.214;2023-05-10T13:13:24;6.32;;;1.50;;
66380;SDS011;53177;52.648;1.214;2023-05-10T13:15:50;7.67;;;1.80;;
66380;SDS011;53177;52.648;1.214;2023-05-10T13:18:15;6.23;;;1.53;;
66380;SDS011;53177;52.648;1.214;2023-05-10T13:20:41;7.10;;;1.57;;
66380;SDS011;53177;52.648;1.214;2023-05-10T13:23:08;5.80;;;1.40;;
66380;SDS011;53177;52.648;1.214;2023-05-10T13:25:33;5.50;;;1.33;;
66380;SDS011;53177;52.648;1.214;2023-05-10T13:27:59;6.78;;;1.88;;
66380;SDS011;53177;52.648;1.214;2023-05-10T13:30:28;6.23;;;1.50;;
66380;SDS011;53177;52.648;1.214;2023-05-10T13:32:54;7.30;;;2.10;;
66380;SDS011;53177;52.648;1.214;2023-05-10T13:35:19;5.93;;;1.50;;
66380;SDS011;53177;52.648;1.214;2023-05-10T13:37:45;6.83;;;1.53;;
66380;SDS011;53177;52.648;1.214;2023-05-10T13:40:11;7.65;;;1.80;;
66380;SDS011;53177;52.648;1.214;2023-05-10T13:42:40;6.03;;;1.50;;
66380;SDS011;53177;52.648;1.214;2023-05-10T13:45:06;7.38;;;1.65;;
66380;SDS011;53177;52.648;1.214;2023-05-10T13:47:31;5.70;;;1.60;;
66380;SDS011;53177;52.648;1.214;2023-05-10T13:49:57;7.03;;;1.80;;
66380;SDS011;53177;52.648;1.214;2023-05-10T13:52:22;7.93;;;2.30;;
66380;SDS011;53177;52.648;1.214;2023-05-10T13:54:48;6.97;;;1.80;;
66380;SDS011;53177;52.648;1.214;2023-05-10T13:57:13;5.47;;;1.50;;
66380;SDS011;53177;52.648;1.214;2023-05-10T13:59:41;5.65;;;1.33;;
66380;SDS011;53177;52.648;1.214;2023-05-10T14:02:07;5.70;;;1.50;;
66380;SDS011;53177;52.648;1.214;2023-05-10T14:04:32;6.88;;;1.45;;
66380;SDS011;53177;52.648;1.214;2023-05-10T14:06:59;7.50;;;1.53;;
66380;SDS011;53177;52.648;1.214;2023-05-10T14:09:24;9.47;;;1.90;;
66380;SDS011;53177;52.648;1.214;2023-05-10T14:11:50;8.85;;;1.80;;
66380;SDS011;53177;52.648;1.214;2023-05-10T14:14:15;5.70;;;1.50;;
66380;SDS011;53177;52.648;1.214;2023-05-10T14:16:44;6.47;;;1.60;;
66380;SDS011;53177;52.648;1.214;2023-05-10T14:19:10;5.35;;;1.50;;
66380;SDS011;53177;52.648;1.214;2023-05-10T14:21:36;10.90;;;2.50;;
66380;SDS011;53177;52.648;1.214;2023-05-10T14:24:02;9.50;;;2.20;;
66380;SDS011;53177;52.648;1.214;2023-05-10T14:26:27;4.97;;;1.50;;
66380;SDS011;53177;52.648;1.214;2023-05-10T14:28:53;6.72;;;1.67;;
66380;SDS011;53177;52.648;1.214;2023-05-10T14:31:18;6.27;;;1.70;;
66380;SDS011;53177;52.648;1.214;2023-05-10T14:33:45;3.83;;;1.40;;
66380;SDS011;53177;52.648;1.214;2023-05-10T14:36:13;6.63;;;1.60;;
66380;SDS011;53177;52.648;1.214;2023-05-10T14:38:39;7.07;;;1.67;;
66380;SDS011;53177;52.648;1.214;2023-05-10T14:41:04;6.88;;;1.50;;
66380;SDS011;53177;52.648;1.214;2023-05-10T14:43:30;8.30;;;1.80;;
66380;SDS011;53177;52.648;1.214;2023-05-10T14:45:55;5.43;;;1.40;;
66380;SDS011;53177;52.648;1.214;2023-05-10T14:48:21;5.30;;;1.40;;
66380;SDS011;53177;52.648;1.214;2023-05-10T14:50:46;5.32;;;1.48;;
66380;SDS011;53177;52.648;1.214;2023-05-10T14:53:12;8.73;;;1.87;;
66380;SDS011;53177;52.648;1.214;2023-05-10T14:55:37;6.23;;;1.53;;
66380;SDS011;53177;52.648;1.214;2023-05-10T14:58:03;7.07;;;1.40;;
66380;SDS011;53177;52.648;1.214;2023-05-10T15:00:28;6.90;;;1.47;;
66380;SDS011;53177;52.648;1.214;2023-05-10T15:02:54;4.85;;;1.30;;
66380;SDS011;53177;52.648;1.214;2023-05-10T15:05:20;5.80;;;1.67;;
66380;SDS011;53177;52.648;1.214;2023-05-10T15:07:45;8.67;;;1.80;;
66380;SDS011;53177;52.648;1.214;2023-05-10T15:10:11;5.10;;;1.40;;
66380;SDS011;53177;52.648;1.214;2023-05-10T15:12:38;5.35;;;1.50;;
66380;SDS011;53177;52.648;1.214;2023-05-10T15:15:05;5.83;;;1.53;;
66380;SDS011;53177;52.648;1.214;2023-05-10T15:17:31;5.32;;;1.48;;
66380;SDS011;53177;52.648;1.214;2023-05-10T15:19:57;5.80;;;1.50;;